createdAt,value
2019-04-16T00:01:13.940Z,82.80
2019-04-16T00:04:22.319Z,82.80
2019-04-16T00:07:10.355Z,82.80
2019-04-16T00:09:53.809Z,82.60
2019-04-16T00:12:37.010Z,82.90
2019-04-16T00:15:07.794Z,82.80
2019-04-16T00:17:37.189Z,82.80
2019-04-16T00:20:07.646Z,82.90
2019-04-16T00:22:50.934Z,83.00
2019-04-16T00:25:20.309Z,83.10
2019-04-16T00:27:49.947Z,83.00
2019-04-16T00:30:20.117Z,83.20
2019-04-16T00:32:50.154Z,83.40
2019-04-16T00:35:20.166Z,83.70
2019-04-16T00:37:51.782Z,83.90
2019-04-16T00:40:26.235Z,84.00
2019-04-16T00:42:54.406Z,84.10
2019-04-16T00:45:23.778Z,84.50
2019-04-16T00:47:53.166Z,84.80
2019-04-16T00:50:22.540Z,84.90
2019-04-16T00:52:53.161Z,85.00
2019-04-16T00:55:22.531Z,85.10
2019-04-16T00:57:51.908Z,85.50
2019-04-16T01:00:21.294Z,85.40
2019-04-16T01:02:50.693Z,85.40
2019-04-16T01:05:20.694Z,85.70
2019-04-16T01:07:50.461Z,85.80
2019-04-16T01:10:20.418Z,85.90
2019-04-16T01:12:50.387Z,86.00
2019-04-16T01:15:20.420Z,86.10
2019-04-16T01:17:50.431Z,86.10
2019-04-16T01:20:20.458Z,86.10
2019-04-16T01:22:50.452Z,86.10
2019-04-16T01:25:23.288Z,86.10
2019-04-16T01:27:59.799Z,86.20
2019-04-16T01:30:44.874Z,86.00
2019-04-16T01:33:15.882Z,86.20
2019-04-16T01:35:51.482Z,86.20
2019-04-16T01:38:22.407Z,86.40
2019-04-16T01:41:02.025Z,86.30
2019-04-16T01:43:31.399Z,86.20
2019-04-16T01:46:02.198Z,86.20
2019-04-16T01:48:32.176Z,86.20
2019-04-16T01:51:01.560Z,86.20
2019-04-16T01:53:30.935Z,86.20
2019-04-16T01:56:00.564Z,86.20
2019-04-16T01:58:33.559Z,86.10
2019-04-16T02:01:01.209Z,86.10
2019-04-16T02:03:30.896Z,86.10
2019-04-16T02:06:00.275Z,85.90
2019-04-16T02:08:31.043Z,85.90
2019-04-16T02:11:20.127Z,86.00
2019-04-16T02:13:49.505Z,85.90
2019-04-16T02:16:18.904Z,85.90
2019-04-16T02:18:48.282Z,85.70
2019-04-16T02:21:17.669Z,85.80
2019-04-16T02:23:48.106Z,85.90
2019-04-16T02:26:20.588Z,85.20
2019-04-16T02:28:49.216Z,85.90
2019-04-16T02:31:18.851Z,85.90
2019-04-16T02:33:48.216Z,86.10
2019-04-16T02:36:17.603Z,86.20
2019-04-16T02:38:52.709Z,86.20
2019-04-16T02:41:18.082Z,86.30
2019-04-16T02:43:47.470Z,86.40
2019-04-16T02:46:16.853Z,86.50
2019-04-16T02:48:49.999Z,86.50
2019-04-16T02:51:27.920Z,86.60
2019-04-16T02:54:00.049Z,87.40
2019-04-16T02:56:52.036Z,86.80
2019-04-16T02:59:26.064Z,86.80
2019-04-16T03:01:57.137Z,87.00
2019-04-16T03:04:30.698Z,87.00
2019-04-16T03:07:03.318Z,87.10
2019-04-16T03:09:31.613Z,87.10
2019-04-16T03:12:01.435Z,87.30
2019-04-16T03:14:30.911Z,87.60
2019-04-16T03:17:17.798Z,87.70
2019-04-16T03:19:51.439Z,87.70
2019-04-16T03:22:19.959Z,87.50
2019-04-16T03:24:49.657Z,87.60
2019-04-16T03:27:21.896Z,87.80
2019-04-16T03:29:50.137Z,87.80
2019-04-16T03:32:19.513Z,87.90
2019-04-16T03:34:50.469Z,87.80
2019-04-16T03:37:21.383Z,87.80
2019-04-16T03:39:51.478Z,87.80
2019-04-16T03:42:24.456Z,88.10
2019-04-16T03:44:52.681Z,88.10
2019-04-16T03:47:22.084Z,88.10
2019-04-16T03:49:51.531Z,89.10
2019-04-16T03:52:21.637Z,88.20
2019-04-16T03:54:54.126Z,88.40
2019-04-16T03:57:23.247Z,88.30
2019-04-16T03:59:52.645Z,88.50
2019-04-16T04:02:23.063Z,88.60
2019-04-16T04:04:52.666Z,89.00
2019-04-16T04:07:22.038Z,88.90
2019-04-16T04:09:54.644Z,89.10
2019-04-16T04:12:22.738Z,89.40
2019-04-16T04:14:54.426Z,89.50
2019-04-16T04:17:23.459Z,89.50
2019-04-16T04:19:52.803Z,89.70
2019-04-16T04:22:25.311Z,89.80
2019-04-16T04:24:53.283Z,89.70
2019-04-16T04:27:22.678Z,89.80
2019-04-16T04:29:53.715Z,90.20
2019-04-16T04:32:23.155Z,90.00
2019-04-16T04:34:52.527Z,89.80
2019-04-16T04:37:21.893Z,89.70
2019-04-16T04:39:51.844Z,90.10
2019-04-16T04:42:21.743Z,89.80
2019-04-16T04:44:52.011Z,89.80
2019-04-16T04:47:21.865Z,89.90
2019-04-16T04:49:51.906Z,89.80
2019-04-16T04:52:21.808Z,89.70
2019-04-16T04:54:54.185Z,90.00
2019-04-16T04:57:22.953Z,90.00
2019-04-16T04:59:52.339Z,90.10
2019-04-16T05:02:22.193Z,90.20
2019-04-16T05:05:02.996Z,90.20
2019-04-16T05:07:32.376Z,90.10
2019-04-16T05:10:04.541Z,90.10
2019-04-16T05:12:32.821Z,90.30
2019-04-16T05:15:03.996Z,90.40
2019-04-16T05:17:35.530Z,90.50
2019-04-16T05:20:06.630Z,90.60
2019-04-16T05:22:36.151Z,90.80
2019-04-16T05:25:06.872Z,90.50
2019-04-16T05:27:39.950Z,90.80
2019-04-16T05:30:08.471Z,90.30
2019-04-16T05:32:37.856Z,90.10
2019-04-16T05:35:10.225Z,89.80
2019-04-16T05:37:39.111Z,89.50
2019-04-16T05:40:09.009Z,88.70
2019-04-16T05:42:38.395Z,88.70
2019-04-16T05:45:08.820Z,88.10
2019-04-16T05:47:38.207Z,87.50
2019-04-16T05:50:07.907Z,87.00
2019-04-16T05:52:37.292Z,86.90
2019-04-16T05:55:16.800Z,86.10
2019-04-16T05:57:45.449Z,85.90
2019-04-16T06:00:17.488Z,85.30
2019-04-16T06:02:49.538Z,84.60
2019-04-16T06:05:17.967Z,84.50
2019-04-16T06:07:47.644Z,83.80
2019-04-16T06:10:18.818Z,83.40
2019-04-16T06:12:50.005Z,83.00
2019-04-16T06:15:38.851Z,82.70
2019-04-16T06:18:27.882Z,81.70
2019-04-16T06:21:01.706Z,81.40
2019-04-16T06:23:32.818Z,80.70
2019-04-16T06:26:14.759Z,80.50
2019-04-16T06:29:00.124Z,80.30
2019-04-16T06:31:40.168Z,79.70
2019-04-16T06:34:19.591Z,79.50
2019-04-16T06:36:53.304Z,79.80
2019-04-16T06:39:30.053Z,79.40
2019-04-16T06:42:08.364Z,79.60
2019-04-16T06:44:54.376Z,78.50
2019-04-16T06:47:25.407Z,79.10
2019-04-16T06:49:56.705Z,79.60
2019-04-16T06:52:46.229Z,79.00
2019-04-16T06:55:25.888Z,78.90
2019-04-16T06:58:16.424Z,78.50
2019-04-16T07:00:55.073Z,77.80
2019-04-16T07:03:32.360Z,77.60
2019-04-16T07:06:04.906Z,77.70
2019-04-16T07:08:38.534Z,77.80
2019-04-16T07:11:07.512Z,77.10
2019-04-16T07:13:41.934Z,77.30
2019-04-16T07:16:08.009Z,76.50
2019-04-16T07:18:38.702Z,76.40
2019-04-16T07:21:09.104Z,75.70
2019-04-16T07:23:38.515Z,75.10
2019-04-16T07:26:13.591Z,75.10
2019-04-16T07:28:40.637Z,74.70
2019-04-16T07:31:31.786Z,75.20
2019-04-16T07:34:03.662Z,74.00
2019-04-16T07:36:34.723Z,74.40
2019-04-16T07:39:13.130Z,74.00
2019-04-16T07:41:43.822Z,73.40
2019-04-16T07:44:17.645Z,74.00
2019-04-16T07:46:54.755Z,73.90
2019-04-16T07:49:31.778Z,72.80
2019-04-16T07:52:19.541Z,73.20
2019-04-16T07:54:50.557Z,71.60
2019-04-16T07:57:19.940Z,71.60
2019-04-16T07:59:49.597Z,70.70
2019-04-16T08:02:21.648Z,69.50
2019-04-16T08:04:50.087Z,71.00
2019-04-16T08:07:20.584Z,71.30
2019-04-16T08:09:50.728Z,70.60
2019-04-16T08:12:29.913Z,69.70
2019-04-16T08:14:51.250Z,69.00
2019-04-16T08:17:20.641Z,68.70
2019-04-16T08:19:50.016Z,67.70
2019-04-16T08:22:19.425Z,67.80
2019-04-16T08:25:03.055Z,67.90
2019-04-16T08:27:30.356Z,67.80
2019-04-16T08:30:03.489Z,67.60
2019-04-16T08:32:31.167Z,66.90
2019-04-16T08:35:00.548Z,66.40
2019-04-16T08:37:29.992Z,66.60
2019-04-16T08:39:59.373Z,66.50
2019-04-16T08:42:30.816Z,66.70
2019-04-16T08:44:59.865Z,65.60
2019-04-16T08:47:29.271Z,66.20
2019-04-16T08:49:58.634Z,66.00
2019-04-16T08:52:28.021Z,65.00
2019-04-16T08:54:57.730Z,65.40
2019-04-16T08:57:31.774Z,65.50
2019-04-16T08:59:58.231Z,65.60
2019-04-16T09:02:28.893Z,66.50
2019-04-16T09:04:58.275Z,65.60
2019-04-16T09:07:39.734Z,64.20
2019-04-16T09:10:18.904Z,64.30
2019-04-16T09:13:01.950Z,62.50
2019-04-16T09:15:28.022Z,61.60
2019-04-16T09:18:04.535Z,63.60
2019-04-16T09:20:37.769Z,61.90
2019-04-16T09:23:06.885Z,62.80
2019-04-16T09:25:38.292Z,61.80
2019-04-16T09:28:23.777Z,63.10
2019-04-16T09:30:46.658Z,62.90
2019-04-16T09:33:37.153Z,61.90
2019-04-16T09:36:11.096Z,61.50
2019-04-16T09:38:51.397Z,61.50
2019-04-16T09:41:25.102Z,62.80
2019-04-16T09:43:59.707Z,61.50
2019-04-16T09:46:49.651Z,60.90
2019-04-16T09:49:04.824Z,60.70
2019-04-16T09:51:32.516Z,60.50
2019-04-16T09:54:01.915Z,61.10
2019-04-16T09:56:31.478Z,59.60
2019-04-16T09:59:07.144Z,60.50
2019-04-16T10:01:41.257Z,59.70
2019-04-16T10:04:15.150Z,59.30
2019-04-16T10:06:44.602Z,59.20
2019-04-16T10:09:19.761Z,59.20
2019-04-16T10:11:45.095Z,60.00
2019-04-16T10:14:14.486Z,60.30
2019-04-16T10:16:43.864Z,59.80
2019-04-16T10:19:13.334Z,59.60
2019-04-16T10:21:42.742Z,58.50
2019-04-16T10:24:16.153Z,58.40
2019-04-16T10:26:47.252Z,59.20
2019-04-16T10:29:18.258Z,58.80
2019-04-16T10:31:47.720Z,59.80
2019-04-16T10:34:17.076Z,58.90
2019-04-16T10:36:46.475Z,58.70
2019-04-16T10:39:23.971Z,58.80
2019-04-16T10:42:00.842Z,58.70
2019-04-16T10:44:47.829Z,58.20
2019-04-16T10:47:37.041Z,59.20
2019-04-16T10:50:20.656Z,59.60
2019-04-16T10:52:56.155Z,59.10
2019-04-16T10:55:44.648Z,59.20
2019-04-16T10:58:15.678Z,58.00
2019-04-16T11:00:55.234Z,59.10
2019-04-16T11:03:35.448Z,59.10
2019-04-16T11:06:12.129Z,58.60
2019-04-16T11:08:41.545Z,58.60
2019-04-16T11:11:10.921Z,58.70
2019-04-16T11:13:42.247Z,58.50
2019-04-16T11:16:13.330Z,58.70
2019-04-16T11:18:42.949Z,58.70
2019-04-16T11:21:12.880Z,59.90
2019-04-16T11:23:42.278Z,58.70
2019-04-16T11:26:11.679Z,58.50
2019-04-16T11:28:41.327Z,58.90
2019-04-16T11:31:12.768Z,60.20
2019-04-16T11:33:42.488Z,59.10
2019-04-16T11:36:19.355Z,59.70
2019-04-16T11:38:43.086Z,59.30
2019-04-16T11:41:12.474Z,58.60
2019-04-16T11:43:41.867Z,58.40
2019-04-16T11:46:11.482Z,58.20
2019-04-16T11:48:40.893Z,58.60
2019-04-16T11:51:10.285Z,59.00
2019-04-16T11:53:39.757Z,59.10
2019-04-16T11:56:09.150Z,58.90
2019-04-16T11:58:47.381Z,58.10
2019-04-16T12:01:24.816Z,59.40
2019-04-16T12:03:56.469Z,60.50
2019-04-16T12:06:43.823Z,59.70
2019-04-16T12:09:30.305Z,59.70
2019-04-16T12:12:13.062Z,58.20
2019-04-16T12:14:44.342Z,58.00
2019-04-16T12:17:20.908Z,57.70
2019-04-16T12:19:54.777Z,58.10
2019-04-16T12:22:28.525Z,58.50
2019-04-16T12:25:17.795Z,58.50
2019-04-16T12:27:51.544Z,58.70
2019-04-16T12:30:25.225Z,59.10
2019-04-16T12:33:07.837Z,59.10
2019-04-16T12:35:52.818Z,60.00
2019-04-16T12:38:32.992Z,59.30
2019-04-16T12:41:04.445Z,58.50
2019-04-16T12:43:35.514Z,58.70
2019-04-16T12:46:12.930Z,58.80
2019-04-16T12:49:02.019Z,60.00
2019-04-16T12:51:33.045Z,59.30
2019-04-16T12:54:13.263Z,57.80
2019-04-16T12:56:53.717Z,58.10
2019-04-16T12:59:30.895Z,58.00
2019-04-16T13:02:18.025Z,57.80
2019-04-16T13:05:03.840Z,57.30
2019-04-16T13:07:38.764Z,57.70
2019-04-16T13:10:12.353Z,56.50
2019-04-16T13:13:01.565Z,56.10
2019-04-16T13:15:47.605Z,55.20
2019-04-16T13:18:18.618Z,55.00
2019-04-16T13:21:05.079Z,54.40
2019-04-16T13:23:34.929Z,55.20
2019-04-16T13:26:13.291Z,55.10
2019-04-16T13:28:42.968Z,55.00
2019-04-16T13:31:12.676Z,54.80
2019-04-16T13:33:43.542Z,55.10
2019-04-16T13:36:13.182Z,55.00
2019-04-16T13:38:46.545Z,55.50
2019-04-16T13:41:15.950Z,55.80
2019-04-16T13:43:47.262Z,56.00
2019-04-16T13:46:16.646Z,56.00
2019-04-16T13:48:47.644Z,56.30
2019-04-16T13:51:21.138Z,55.90
2019-04-16T13:54:08.210Z,56.10
2019-04-16T13:56:42.100Z,56.00
2019-04-16T13:59:33.796Z,56.20
2019-04-16T14:02:04.831Z,56.80
2019-04-16T14:04:37.010Z,57.00
2019-04-16T14:07:05.293Z,56.40
2019-04-16T14:09:34.939Z,56.70
2019-04-16T14:12:04.941Z,55.80
2019-04-16T14:14:34.309Z,56.40
2019-04-16T14:17:09.760Z,56.30
2019-04-16T14:19:38.030Z,56.50
2019-04-16T14:22:06.103Z,56.20
2019-04-16T14:24:35.467Z,56.10
2019-04-16T14:27:05.202Z,56.00
2019-04-16T14:29:35.876Z,55.90
2019-04-16T14:32:05.780Z,56.30
2019-04-16T14:34:48.420Z,56.20
2019-04-16T14:37:18.557Z,56.20
2019-04-16T14:39:55.332Z,56.90
2019-04-16T14:42:25.154Z,56.40
2019-04-16T14:44:56.159Z,56.40
2019-04-16T14:47:25.566Z,56.10
2019-04-16T14:49:54.964Z,55.70
2019-04-16T14:52:43.927Z,56.10
2019-04-16T14:55:15.006Z,56.40
2019-04-16T14:58:04.417Z,56.50
2019-04-16T15:00:50.494Z,56.50
2019-04-16T15:03:27.164Z,56.70
2019-04-16T15:06:13.164Z,56.40
2019-04-16T15:08:52.673Z,56.10
2019-04-16T15:11:41.758Z,56.80
2019-04-16T15:14:18.531Z,57.00
2019-04-16T15:16:50.962Z,57.10
2019-04-16T15:19:27.993Z,57.50
2019-04-16T15:22:01.729Z,57.40
2019-04-16T15:24:38.760Z,57.60
2019-04-16T15:27:12.457Z,57.70
2019-04-16T15:29:43.479Z,57.70
2019-04-16T15:32:30.615Z,58.00
2019-04-16T15:35:00.943Z,58.20
2019-04-16T15:37:35.258Z,58.60
2019-04-16T15:40:09.055Z,59.00
2019-04-16T15:42:48.315Z,59.30
2019-04-16T15:45:37.146Z,59.70
2019-04-16T15:48:10.831Z,59.50
2019-04-16T15:50:41.865Z,59.80
2019-04-16T15:53:15.360Z,60.00
2019-04-16T15:55:49.267Z,60.50
2019-04-16T15:58:32.358Z,60.50
2019-04-16T16:01:03.684Z,60.90
2019-04-16T16:03:34.715Z,61.20
2019-04-16T16:06:20.376Z,61.20
2019-04-16T16:08:50.659Z,61.00
2019-04-16T16:11:21.671Z,61.20
2019-04-16T16:13:51.050Z,61.60
2019-04-16T16:16:20.633Z,62.00
2019-04-16T16:18:50.334Z,62.60
2019-04-16T16:21:19.702Z,63.20
2019-04-16T16:23:49.071Z,63.80
2019-04-16T16:26:18.740Z,64.00
2019-04-16T16:28:48.104Z,64.30
2019-04-16T16:31:17.745Z,64.60
2019-04-16T16:33:47.476Z,65.00
2019-04-16T16:36:16.870Z,65.30
2019-04-16T16:38:48.640Z,65.30
2019-04-16T16:41:17.334Z,65.60
2019-04-16T16:43:46.738Z,66.10
2019-04-16T16:46:32.916Z,66.20
2019-04-16T16:49:02.576Z,66.50
2019-04-16T16:51:32.585Z,66.50
2019-04-16T16:54:13.486Z,66.60
2019-04-16T16:56:47.205Z,66.70
2019-04-16T16:59:36.467Z,67.30
2019-04-16T17:02:19.298Z,67.40
2019-04-16T17:04:52.971Z,67.30
2019-04-16T17:07:22.352Z,67.70
2019-04-16T17:09:51.989Z,68.20
2019-04-16T17:12:21.465Z,68.40
2019-04-16T17:14:50.826Z,68.10
2019-04-16T17:17:20.234Z,68.60
2019-04-16T17:19:50.789Z,69.20
2019-04-16T17:22:20.445Z,69.60
2019-04-16T17:24:49.810Z,69.50
2019-04-16T17:27:19.213Z,70.10
2019-04-16T17:29:49.834Z,70.10
2019-04-16T17:32:19.682Z,70.40
2019-04-16T17:34:49.061Z,70.60
2019-04-16T17:37:21.388Z,70.90
2019-04-16T17:39:51.769Z,71.00
2019-04-16T17:42:36.998Z,71.20
2019-04-16T17:45:14.177Z,71.40
2019-04-16T17:48:01.496Z,71.30
2019-04-16T17:50:44.604Z,71.50
2019-04-16T17:53:24.441Z,71.60
2019-04-16T17:56:13.308Z,71.70
2019-04-16T17:58:59.389Z,72.10
2019-04-16T18:01:43.563Z,72.40
2019-04-16T18:04:21.264Z,72.40
2019-04-16T18:07:08.437Z,73.00
2019-04-16T18:09:45.427Z,73.60
2019-04-16T18:12:32.742Z,73.80
2019-04-16T18:15:18.960Z,73.90
2019-04-16T18:17:55.442Z,74.80
2019-04-16T18:20:29.347Z,75.00
2019-04-16T18:23:16.628Z,75.60
2019-04-16T18:26:04.215Z,76.10
2019-04-16T18:28:38.425Z,75.60
2019-04-16T18:31:23.401Z,76.10
2019-04-16T18:33:54.385Z,76.20
2019-04-16T18:36:37.405Z,76.30
2019-04-16T18:39:24.294Z,76.80
2019-04-16T18:42:01.816Z,76.90
2019-04-16T18:44:51.284Z,76.80
2019-04-16T18:47:26.614Z,77.50
2019-04-16T18:50:01.223Z,77.60
2019-04-16T18:52:30.641Z,77.80
2019-04-16T18:55:00.035Z,78.50
2019-04-16T18:57:29.403Z,78.30
2019-04-16T18:59:58.954Z,79.10
2019-04-16T19:02:30.173Z,79.30
2019-04-16T19:04:59.552Z,79.60
2019-04-16T19:07:28.996Z,79.90
2019-04-16T19:09:58.742Z,80.20
2019-04-16T19:12:28.134Z,80.30
2019-04-16T19:14:57.607Z,81.30
2019-04-16T19:17:26.972Z,80.50
2019-04-16T19:19:56.709Z,80.90
2019-04-16T19:22:26.179Z,81.00
2019-04-16T19:24:55.612Z,80.80
2019-04-16T19:27:27.943Z,80.60
2019-04-16T19:29:56.563Z,80.60
2019-04-16T19:32:27.782Z,80.80
2019-04-16T19:35:09.489Z,80.90
2019-04-16T19:37:29.668Z,81.20
2019-04-16T19:39:59.247Z,81.10
2019-04-16T19:42:29.577Z,81.30
2019-04-16T19:44:59.298Z,82.30
2019-04-16T19:47:28.678Z,81.50
2019-04-16T19:49:58.418Z,81.50
2019-04-16T19:52:27.789Z,81.80
2019-04-16T19:54:57.339Z,82.00
2019-04-16T19:57:27.234Z,82.00
2019-04-16T19:59:56.943Z,82.00
2019-04-16T20:02:26.315Z,82.20
2019-04-16T20:04:55.982Z,82.40
2019-04-16T20:07:25.440Z,82.40
2019-04-16T20:09:55.121Z,82.40
2019-04-16T20:12:25.146Z,82.70
2019-04-16T20:14:55.915Z,82.90
2019-04-16T20:17:25.289Z,82.80
2019-04-16T20:19:56.301Z,83.40
2019-04-16T20:22:26.835Z,83.60
2019-04-16T20:24:56.207Z,83.70
2019-04-16T20:27:25.654Z,83.90
2019-04-16T20:29:55.370Z,84.00
2019-04-16T20:32:26.058Z,84.20
2019-04-16T20:34:55.421Z,84.30
2019-04-16T20:37:24.796Z,84.40
2019-04-16T20:39:54.247Z,84.30
2019-04-16T20:42:23.620Z,84.70
2019-04-16T20:44:53.342Z,84.90
2019-04-16T20:47:22.719Z,85.10
2019-04-16T20:49:52.109Z,85.20
2019-04-16T20:52:21.484Z,85.30
2019-04-16T20:54:52.508Z,85.30
2019-04-16T20:57:25.267Z,85.40
2019-04-16T20:59:53.487Z,85.50
2019-04-16T21:02:22.864Z,85.20
2019-04-16T21:04:52.257Z,85.60
2019-04-16T21:07:21.636Z,85.60
2019-04-16T21:09:51.020Z,85.60
2019-04-16T21:12:20.395Z,85.70
2019-04-16T21:14:50.880Z,85.60
2019-04-16T21:17:21.173Z,85.60
2019-04-16T21:19:50.549Z,86.20
2019-04-16T21:22:20.313Z,86.40
2019-04-16T21:24:50.022Z,86.30
2019-04-16T21:27:19.386Z,86.50
2019-04-16T21:29:48.798Z,87.60
2019-04-16T21:32:19.797Z,86.90
2019-04-16T21:34:50.820Z,87.10
2019-04-16T21:37:30.823Z,87.10
2019-04-16T21:40:01.977Z,87.20
2019-04-16T21:42:34.429Z,87.30
2019-04-16T21:45:02.523Z,87.60
2019-04-16T21:47:31.891Z,87.50
2019-04-16T21:50:03.429Z,87.40
2019-04-16T21:52:32.798Z,87.70
2019-04-16T21:55:03.992Z,87.80
2019-04-16T21:57:33.272Z,87.90
2019-04-16T22:00:03.521Z,87.90
2019-04-16T22:02:37.652Z,88.00
2019-04-16T22:05:10.328Z,88.10
2019-04-16T22:07:39.957Z,89.20
2019-04-16T22:10:09.850Z,88.50
2019-04-16T22:12:39.223Z,88.50
2019-04-16T22:15:09.226Z,88.60
2019-04-16T22:17:38.598Z,88.60
2019-04-16T22:20:08.389Z,88.80
2019-04-16T22:22:37.749Z,88.60
2019-04-16T22:25:07.929Z,88.80
2019-04-16T22:27:39.788Z,88.80
2019-04-16T22:30:09.843Z,88.80
2019-04-16T22:32:39.192Z,88.90
2019-04-16T22:35:09.162Z,89.80
2019-04-16T22:37:38.527Z,89.10
2019-04-16T22:40:09.849Z,89.10
2019-04-16T22:42:43.586Z,89.20
2019-04-16T22:45:23.665Z,89.30
2019-04-16T22:47:53.092Z,89.40
2019-04-16T22:50:22.464Z,89.60
2019-04-16T22:52:51.843Z,90.00
2019-04-16T22:55:24.395Z,90.10
2019-04-16T22:57:52.328Z,90.10
2019-04-16T23:00:23.610Z,90.10
2019-04-16T23:02:53.019Z,90.10
2019-04-16T23:05:22.717Z,90.20
2019-04-16T23:07:52.105Z,90.20
2019-04-16T23:10:21.901Z,90.40
2019-04-16T23:12:51.434Z,90.40
2019-04-16T23:15:20.875Z,90.50
2019-04-16T23:17:50.251Z,90.50
2019-04-16T23:20:29.366Z,90.60
2019-04-16T23:22:50.736Z,90.60
2019-04-16T23:25:20.385Z,90.70
2019-04-16T23:27:50.093Z,90.70
2019-04-16T23:30:19.466Z,90.90
2019-04-16T23:32:48.856Z,91.00
2019-04-16T23:35:18.336Z,91.00
2019-04-16T23:37:47.668Z,91.10
2019-04-16T23:40:17.046Z,91.30
2019-04-16T23:43:04.343Z,91.20
2019-04-16T23:45:35.689Z,91.30
2019-04-16T23:48:14.699Z,91.40
2019-04-16T23:50:48.502Z,91.40
2019-04-16T23:53:19.515Z,91.50
2019-04-16T23:55:56.258Z,91.60
2019-04-16T23:58:28.540Z,91.60
